createdAt,value
2018-03-22T00:01:05.407Z,94.80
2018-03-22T00:03:31.643Z,94.70
2018-03-22T00:05:57.877Z,94.70
2018-03-22T00:08:24.117Z,94.70
2018-03-22T00:10:50.573Z,94.70
2018-03-22T00:13:16.777Z,94.70
2018-03-22T00:15:42.995Z,94.70
2018-03-22T00:18:09.224Z,94.80
2018-03-22T00:20:35.452Z,94.70
2018-03-22T00:23:02.453Z,94.70
2018-03-22T00:25:28.656Z,94.70
2018-03-22T00:27:55.621Z,94.90
2018-03-22T00:30:21.840Z,94.90
2018-03-22T00:32:48.799Z,94.90
2018-03-22T00:35:15.758Z,95.00
2018-03-22T00:37:42.704Z,95.10
2018-03-22T00:40:08.933Z,95.00
2018-03-22T00:42:35.139Z,95.10
2018-03-22T00:45:01.365Z,95.20
2018-03-22T00:47:27.592Z,95.20
2018-03-22T00:49:53.860Z,95.20
2018-03-22T00:52:20.059Z,95.20
2018-03-22T00:54:47.030Z,95.20
2018-03-22T00:57:13.280Z,95.20
2018-03-22T00:59:39.508Z,95.30
2018-03-22T01:02:06.544Z,95.30
2018-03-22T01:04:32.780Z,95.30
2018-03-22T01:06:59.024Z,95.50
2018-03-22T01:09:25.973Z,95.70
2018-03-22T01:11:52.957Z,95.70
2018-03-22T01:14:19.931Z,95.70
2018-03-22T01:16:46.166Z,95.70
2018-03-22T01:19:12.391Z,95.70
2018-03-22T01:21:39.361Z,95.70
2018-03-22T01:24:05.578Z,95.70
2018-03-22T01:26:31.807Z,95.60
2018-03-22T01:28:58.030Z,95.50
2018-03-22T01:31:24.971Z,95.40
2018-03-22T01:33:51.188Z,95.40
2018-03-22T01:36:17.408Z,95.40
2018-03-22T01:38:44.372Z,95.40
2018-03-22T01:41:10.596Z,95.40
2018-03-22T01:43:37.831Z,95.40
2018-03-22T01:46:04.052Z,95.40
2018-03-22T01:48:31.059Z,95.40
2018-03-22T01:50:58.025Z,95.40
2018-03-22T01:53:24.998Z,95.40
2018-03-22T01:55:51.230Z,95.40
2018-03-22T01:58:18.208Z,95.50
2018-03-22T02:00:44.452Z,95.40
2018-03-22T02:03:10.698Z,95.40
2018-03-22T02:05:36.932Z,95.50
2018-03-22T02:08:03.176Z,95.60
2018-03-22T02:10:29.391Z,95.60
2018-03-22T02:12:55.656Z,95.70
2018-03-22T02:15:21.861Z,95.60
2018-03-22T02:17:48.828Z,95.50
2018-03-22T02:20:15.809Z,95.50
2018-03-22T02:22:42.046Z,95.50
2018-03-22T02:25:08.283Z,95.40
2018-03-22T02:27:34.521Z,95.40
2018-03-22T02:30:07.754Z,95.40
2018-03-22T02:32:33.975Z,95.40
2018-03-22T02:35:00.206Z,95.40
2018-03-22T02:37:26.433Z,95.40
2018-03-22T02:39:52.687Z,95.30
2018-03-22T02:42:18.922Z,95.40
2018-03-22T02:44:45.558Z,95.30
2018-03-22T02:47:12.522Z,95.40
2018-03-22T02:49:38.738Z,95.40
2018-03-22T02:52:05.003Z,95.40
2018-03-22T02:54:31.288Z,95.20
2018-03-22T02:56:57.534Z,95.40
2018-03-22T02:59:23.759Z,95.40
2018-03-22T03:01:50.029Z,95.30
2018-03-22T03:04:16.259Z,95.30
2018-03-22T03:06:42.476Z,95.30
2018-03-22T03:09:08.709Z,95.30
2018-03-22T03:11:34.928Z,95.30
2018-03-22T03:14:02.185Z,95.30
2018-03-22T03:16:29.139Z,95.30
2018-03-22T03:18:56.092Z,95.40
2018-03-22T03:21:23.053Z,95.20
2018-03-22T03:23:50.001Z,95.20
2018-03-22T03:26:16.970Z,95.40
2018-03-22T03:28:43.924Z,95.20
2018-03-22T03:31:10.895Z,95.20
2018-03-22T03:33:37.854Z,95.10
2018-03-22T03:36:04.128Z,95.20
2018-03-22T03:38:30.343Z,95.20
2018-03-22T03:40:56.648Z,95.20
2018-03-22T03:43:22.880Z,95.20
2018-03-22T03:45:49.112Z,95.20
2018-03-22T03:48:15.417Z,95.10
2018-03-22T03:50:42.346Z,95.20
2018-03-22T03:53:09.300Z,95.20
2018-03-22T03:55:36.328Z,95.30
2018-03-22T03:58:02.581Z,95.30
2018-03-22T04:00:28.834Z,95.30
2018-03-22T04:02:55.795Z,95.30
2018-03-22T04:05:22.769Z,95.30
2018-03-22T04:07:48.980Z,95.20
2018-03-22T04:10:15.211Z,95.30
2018-03-22T04:12:41.446Z,95.40
2018-03-22T04:15:07.666Z,95.30
2018-03-22T04:17:33.906Z,95.40
2018-03-22T04:20:00.124Z,95.40
2018-03-22T04:22:26.348Z,95.40
2018-03-22T04:24:52.581Z,95.30
2018-03-22T04:27:19.541Z,95.30
2018-03-22T04:29:46.497Z,95.30
2018-03-22T04:32:13.447Z,95.30
2018-03-22T04:34:40.407Z,95.20
2018-03-22T04:37:07.361Z,99.10
2018-03-22T04:39:34.345Z,99.90
2018-03-22T04:42:00.577Z,99.90
2018-03-22T04:44:26.810Z,98.30
2018-03-22T04:46:53.779Z,92.50
2018-03-22T04:49:19.975Z,92.50
2018-03-22T04:51:46.451Z,91.00
2018-03-22T04:54:13.459Z,86.50
2018-03-22T04:56:39.669Z,86.50
2018-03-22T04:59:05.906Z,84.90
2018-03-22T05:01:32.119Z,83.60
2018-03-22T05:03:59.099Z,80.70
2018-03-22T05:06:25.313Z,80.70
2018-03-22T05:08:51.539Z,81.20
2018-03-22T05:11:17.748Z,82.20
2018-03-22T05:13:43.966Z,83.30
2018-03-22T05:16:10.172Z,84.40
2018-03-22T05:18:36.421Z,86.90
2018-03-22T05:21:02.654Z,90.50
2018-03-22T05:23:29.629Z,87.80
2018-03-22T05:25:56.612Z,86.20
2018-03-22T05:28:22.847Z,86.20
2018-03-22T05:30:49.056Z,85.70
2018-03-22T05:33:16.042Z,86.80
2018-03-22T05:35:42.285Z,86.80
2018-03-22T05:38:08.514Z,87.50
2018-03-22T05:40:34.844Z,88.20
2018-03-22T05:43:01.826Z,89.20
2018-03-22T05:45:28.039Z,89.20
2018-03-22T05:47:54.990Z,90.20
2018-03-22T05:50:21.978Z,90.40
2018-03-22T05:52:48.195Z,90.40
2018-03-22T05:55:15.196Z,90.90
2018-03-22T05:57:41.408Z,90.90
2018-03-22T06:00:07.660Z,91.30
2018-03-22T06:02:33.890Z,93.50
2018-03-22T06:05:07.113Z,94.70
2018-03-22T06:07:33.347Z,94.50
2018-03-22T06:09:59.580Z,94.60
2018-03-22T06:12:25.810Z,94.30
2018-03-22T06:14:52.029Z,93.70
2018-03-22T06:17:26.062Z,92.90
2018-03-22T06:19:52.250Z,92.90
2018-03-22T06:22:18.485Z,92.70
2018-03-22T06:24:44.751Z,92.90
2018-03-22T06:27:11.041Z,92.80
2018-03-22T06:29:37.294Z,92.30
2018-03-22T06:32:03.608Z,92.20
2018-03-22T06:34:30.611Z,92.60
2018-03-22T06:36:56.855Z,92.30
2018-03-22T06:39:23.063Z,92.40
2018-03-22T06:41:50.057Z,92.70
2018-03-22T06:44:17.025Z,92.60
2018-03-22T06:46:43.259Z,92.60
2018-03-22T06:49:09.487Z,92.60
2018-03-22T06:51:35.721Z,92.60
2018-03-22T06:54:01.935Z,92.60
2018-03-22T06:56:28.189Z,92.60
2018-03-22T06:58:54.425Z,92.50
2018-03-22T07:01:20.652Z,92.50
2018-03-22T07:03:47.640Z,92.60
2018-03-22T07:06:13.865Z,92.60
2018-03-22T07:08:40.411Z,92.60
2018-03-22T07:11:06.629Z,92.50
2018-03-22T07:13:33.609Z,92.00
2018-03-22T07:15:59.839Z,91.90
2018-03-22T07:18:26.083Z,91.80
2018-03-22T07:20:52.297Z,91.50
2018-03-22T07:23:18.504Z,91.40
2018-03-22T07:25:45.085Z,91.60
2018-03-22T07:28:11.323Z,91.30
2018-03-22T07:30:37.549Z,91.60
2018-03-22T07:33:03.799Z,91.00
2018-03-22T07:35:30.070Z,90.80
2018-03-22T07:37:56.309Z,90.40
2018-03-22T07:40:22.536Z,90.30
2018-03-22T07:42:55.512Z,90.00
2018-03-22T07:45:21.728Z,90.00
2018-03-22T07:47:47.964Z,90.20
2018-03-22T07:50:14.235Z,90.30
2018-03-22T07:52:40.462Z,90.40
2018-03-22T07:55:06.742Z,90.50
2018-03-22T07:57:33.687Z,90.50
2018-03-22T07:59:59.959Z,90.50
2018-03-22T08:02:26.179Z,90.60
2018-03-22T08:04:53.158Z,90.70
2018-03-22T08:07:19.418Z,90.70
2018-03-22T08:09:45.632Z,90.70
2018-03-22T08:12:11.880Z,90.80
2018-03-22T08:14:38.102Z,90.70
2018-03-22T08:17:05.062Z,89.60
2018-03-22T08:19:32.024Z,88.70
2018-03-22T08:21:58.244Z,88.70
2018-03-22T08:24:24.473Z,87.80
2018-03-22T08:26:50.684Z,87.10
2018-03-22T08:29:16.913Z,86.80
2018-03-22T08:31:43.129Z,86.90
2018-03-22T08:34:09.704Z,86.90
2018-03-22T08:36:35.961Z,85.80
2018-03-22T08:39:02.234Z,84.30
2018-03-22T08:41:28.479Z,83.70
2018-03-22T08:43:55.454Z,83.00
2018-03-22T08:46:22.422Z,82.10
2018-03-22T08:48:48.675Z,82.10
2018-03-22T08:51:14.918Z,81.30
2018-03-22T08:53:41.162Z,81.10
2018-03-22T08:56:07.375Z,80.60
2018-03-22T08:58:34.377Z,79.50
2018-03-22T09:01:00.598Z,79.50
2018-03-22T09:03:26.833Z,79.60
2018-03-22T09:05:53.086Z,80.00
2018-03-22T09:08:19.344Z,78.80
2018-03-22T09:10:45.566Z,79.60
2018-03-22T09:13:11.788Z,80.20
2018-03-22T09:15:38.046Z,78.70
2018-03-22T09:18:04.297Z,78.30
2018-03-22T09:20:30.535Z,77.90
2018-03-22T09:22:56.765Z,78.70
2018-03-22T09:25:23.001Z,78.60
2018-03-22T09:27:49.293Z,77.80
2018-03-22T09:30:15.475Z,77.30
2018-03-22T09:32:41.701Z,75.60
2018-03-22T09:35:07.917Z,74.90
2018-03-22T09:37:35.251Z,72.70
2018-03-22T09:40:01.477Z,72.60
2018-03-22T09:42:27.683Z,72.60
2018-03-22T09:44:53.928Z,72.60
2018-03-22T09:47:20.153Z,71.40
2018-03-22T09:49:47.143Z,71.90
2018-03-22T09:52:13.359Z,71.90
2018-03-22T09:54:40.405Z,69.10
2018-03-22T09:57:07.416Z,69.00
2018-03-22T09:59:34.014Z,69.00
2018-03-22T10:02:00.997Z,67.90
2018-03-22T10:04:27.241Z,67.90
2018-03-22T10:06:53.481Z,67.60
2018-03-22T10:09:19.696Z,66.90
2018-03-22T10:11:46.673Z,65.30
2018-03-22T10:14:12.879Z,65.20
2018-03-22T10:16:39.867Z,64.40
2018-03-22T10:19:06.818Z,64.30
2018-03-22T10:21:33.770Z,63.30
2018-03-22T10:24:00.748Z,64.40
2018-03-22T10:26:26.971Z,64.50
2018-03-22T10:28:53.932Z,61.30
2018-03-22T10:31:20.896Z,61.90
2018-03-22T10:33:48.126Z,63.20
2018-03-22T10:36:14.377Z,63.20
2018-03-22T10:38:40.621Z,59.40
2018-03-22T10:41:07.632Z,57.90
2018-03-22T10:43:33.858Z,57.80
2018-03-22T10:46:00.094Z,56.70
2018-03-22T10:48:26.379Z,57.80
2018-03-22T10:50:52.566Z,57.30
2018-03-22T10:53:18.871Z,54.90
2018-03-22T10:55:48.224Z,52.40
2018-03-22T10:58:14.472Z,52.40
2018-03-22T11:00:46.880Z,52.80
2018-03-22T11:03:28.042Z,53.60
2018-03-22T11:05:54.292Z,53.40
2018-03-22T11:08:20.514Z,51.90
2018-03-22T11:10:46.770Z,51.40
2018-03-22T11:13:13.004Z,51.10
2018-03-22T11:15:39.270Z,50.70
2018-03-22T11:18:05.502Z,50.10
2018-03-22T11:20:31.730Z,50.30
2018-03-22T11:22:57.988Z,50.10
2018-03-22T11:25:24.223Z,50.50
2018-03-22T11:27:50.437Z,48.80
2018-03-22T11:30:16.705Z,48.30
2018-03-22T11:32:42.947Z,48.60
2018-03-22T11:35:12.254Z,49.20
2018-03-22T11:37:38.527Z,48.80
2018-03-22T11:40:04.765Z,48.20
2018-03-22T11:42:30.992Z,47.70
2018-03-22T11:44:57.204Z,47.70
2018-03-22T11:47:23.466Z,47.70
2018-03-22T11:49:49.698Z,48.10
2018-03-22T11:52:15.968Z,47.90
2018-03-22T11:54:42.192Z,48.20
2018-03-22T11:57:08.408Z,48.80
2018-03-22T11:59:34.660Z,48.60
2018-03-22T12:02:00.933Z,47.80
2018-03-22T12:04:27.221Z,47.80
2018-03-22T12:06:53.491Z,46.60
2018-03-22T12:09:19.684Z,46.80
2018-03-22T12:11:46.645Z,46.50
2018-03-22T12:14:13.592Z,46.80
2018-03-22T12:16:40.951Z,47.30
2018-03-22T12:19:07.205Z,47.40
2018-03-22T12:21:34.197Z,47.80
2018-03-22T12:24:00.439Z,47.40
2018-03-22T12:26:26.662Z,47.10
2018-03-22T12:28:53.625Z,43.30
2018-03-22T12:31:19.861Z,43.30
2018-03-22T12:33:47.091Z,45.70
2018-03-22T12:36:13.343Z,45.70
2018-03-22T12:38:40.316Z,44.70
2018-03-22T12:41:07.307Z,42.10
2018-03-22T12:43:33.527Z,42.10
2018-03-22T12:45:59.809Z,42.10
2018-03-22T12:48:26.025Z,41.40
2018-03-22T12:50:52.491Z,40.50
2018-03-22T12:53:18.763Z,39.90
2018-03-22T12:55:45.019Z,40.40
2018-03-22T12:58:12.013Z,40.60
2018-03-22T13:00:38.246Z,40.50
2018-03-22T13:03:04.481Z,40.00
2018-03-22T13:05:30.728Z,42.90
2018-03-22T13:07:57.005Z,41.60
2018-03-22T13:10:23.259Z,39.20
2018-03-22T13:12:49.480Z,38.30
2018-03-22T13:15:15.726Z,39.00
2018-03-22T13:17:41.944Z,38.00
2018-03-22T13:20:08.185Z,39.60
2018-03-22T13:22:34.427Z,40.80
2018-03-22T13:25:00.972Z,40.00
2018-03-22T13:27:27.227Z,40.30
2018-03-22T13:29:53.544Z,39.10
2018-03-22T13:32:20.500Z,40.00
2018-03-22T13:34:46.722Z,40.00
2018-03-22T13:37:12.937Z,39.60
2018-03-22T13:39:39.154Z,40.70
2018-03-22T13:42:05.416Z,40.40
2018-03-22T13:44:32.404Z,39.20
2018-03-22T13:46:58.634Z,39.10
2018-03-22T13:49:24.890Z,38.20
2018-03-22T13:51:51.134Z,38.00
2018-03-22T13:54:17.760Z,38.90
2018-03-22T13:56:44.712Z,40.00
2018-03-22T13:59:11.707Z,41.10
2018-03-22T14:01:37.931Z,41.00
2018-03-22T14:04:04.167Z,41.40
2018-03-22T14:06:30.453Z,42.40
2018-03-22T14:08:56.696Z,42.60
2018-03-22T14:11:22.978Z,42.10
2018-03-22T14:13:49.214Z,42.50
2018-03-22T14:16:15.433Z,42.60
2018-03-22T14:18:42.009Z,42.40
2018-03-22T14:21:08.975Z,40.50
2018-03-22T14:23:35.221Z,40.50
2018-03-22T14:26:01.443Z,40.40
2018-03-22T14:28:28.429Z,41.00
2018-03-22T14:30:54.700Z,40.90
2018-03-22T14:33:20.975Z,41.50
2018-03-22T14:35:47.961Z,41.90
2018-03-22T14:38:14.907Z,42.50
2018-03-22T14:40:41.897Z,43.10
2018-03-22T14:43:08.139Z,43.10
2018-03-22T14:45:34.361Z,43.90
2018-03-22T14:48:00.605Z,44.30
2018-03-22T14:50:26.812Z,44.00
2018-03-22T14:52:53.350Z,44.00
2018-03-22T14:55:19.571Z,42.60
2018-03-22T14:57:45.812Z,41.40
2018-03-22T15:00:12.058Z,42.00
2018-03-22T15:02:38.284Z,42.40
2018-03-22T15:05:04.589Z,42.30
2018-03-22T15:07:30.863Z,41.90
2018-03-22T15:09:57.129Z,41.10
2018-03-22T15:12:23.402Z,40.30
2018-03-22T15:14:50.370Z,38.90
2018-03-22T15:17:16.594Z,38.90
2018-03-22T15:19:43.565Z,37.90
2018-03-22T15:22:09.834Z,37.90
2018-03-22T15:24:36.070Z,38.80
2018-03-22T15:27:02.351Z,39.70
2018-03-22T15:29:28.609Z,40.50
2018-03-22T15:31:55.583Z,40.20
2018-03-22T15:34:29.420Z,40.40
2018-03-22T15:36:56.036Z,40.40
2018-03-22T15:39:22.998Z,40.50
2018-03-22T15:41:49.972Z,40.20
2018-03-22T15:44:16.948Z,40.70
2018-03-22T15:46:43.171Z,40.70
2018-03-22T15:49:10.171Z,41.90
2018-03-22T15:51:36.412Z,41.90
2018-03-22T15:54:02.705Z,41.20
2018-03-22T15:56:29.667Z,40.10
2018-03-22T15:58:55.922Z,40.10
2018-03-22T16:01:22.160Z,39.80
2018-03-22T16:03:48.356Z,39.20
2018-03-22T16:06:14.587Z,39.10
2018-03-22T16:08:40.808Z,39.40
2018-03-22T16:11:07.057Z,39.80
2018-03-22T16:13:33.309Z,39.50
2018-03-22T16:15:59.565Z,39.60
2018-03-22T16:18:25.809Z,40.60
2018-03-22T16:20:52.355Z,41.00
2018-03-22T16:23:18.576Z,41.40
2018-03-22T16:25:44.808Z,41.90
2018-03-22T16:28:11.077Z,42.00
2018-03-22T16:30:37.316Z,42.50
2018-03-22T16:33:03.553Z,43.30
2018-03-22T16:35:29.828Z,43.90
2018-03-22T16:37:56.382Z,45.10
2018-03-22T16:40:22.631Z,45.70
2018-03-22T16:42:48.877Z,46.20
2018-03-22T16:45:15.186Z,46.80
2018-03-22T16:47:42.213Z,47.50
2018-03-22T16:50:08.463Z,47.40
2018-03-22T16:52:34.720Z,47.30
2018-03-22T16:55:01.706Z,47.30
2018-03-22T16:57:27.935Z,47.80
2018-03-22T16:59:54.225Z,48.00
2018-03-22T17:02:20.478Z,48.30
2018-03-22T17:04:46.791Z,48.20
2018-03-22T17:07:13.145Z,48.20
2018-03-22T17:09:39.391Z,48.30
2018-03-22T17:12:05.957Z,48.40
2018-03-22T17:14:32.221Z,48.20
2018-03-22T17:16:59.226Z,47.90
2018-03-22T17:19:26.417Z,48.20
2018-03-22T17:21:52.680Z,48.20
2018-03-22T17:24:19.727Z,48.70
2018-03-22T17:26:45.984Z,48.70
2018-03-22T17:29:13.035Z,49.00
2018-03-22T17:31:40.063Z,49.10
2018-03-22T17:34:06.337Z,49.00
2018-03-22T17:36:33.351Z,49.70
2018-03-22T17:38:59.625Z,49.60
2018-03-22T17:41:25.871Z,49.80
2018-03-22T17:43:52.137Z,50.40
2018-03-22T17:46:18.361Z,50.30
2018-03-22T17:48:45.463Z,51.10
2018-03-22T17:51:11.756Z,51.10
2018-03-22T17:53:38.871Z,53.00
2018-03-22T17:56:05.235Z,53.00
2018-03-22T17:58:31.532Z,54.60
2018-03-22T18:00:57.882Z,55.80
2018-03-22T18:03:24.246Z,56.40
2018-03-22T18:05:50.540Z,56.60
2018-03-22T18:08:17.559Z,57.10
2018-03-22T18:10:43.835Z,57.10
2018-03-22T18:13:10.230Z,57.40
2018-03-22T18:15:36.514Z,57.60
2018-03-22T18:18:02.854Z,58.20
2018-03-22T18:20:29.158Z,59.00
2018-03-22T18:22:56.211Z,58.90
2018-03-22T18:25:22.526Z,58.50
2018-03-22T18:27:50.142Z,57.60
2018-03-22T18:30:16.479Z,56.80
2018-03-22T18:32:42.832Z,56.20
2018-03-22T18:35:09.142Z,57.30
2018-03-22T18:37:35.429Z,58.40
2018-03-22T18:40:01.720Z,60.30
2018-03-22T18:42:28.955Z,61.80
2018-03-22T18:44:56.056Z,63.70
2018-03-22T18:47:22.395Z,63.70
2018-03-22T18:49:48.702Z,64.30
2018-03-22T18:52:15.728Z,65.80
2018-03-22T18:54:42.064Z,65.80
2018-03-22T18:57:08.349Z,67.20
2018-03-22T18:59:36.366Z,69.20
2018-03-22T19:02:03.732Z,69.20
2018-03-22T19:04:30.060Z,71.10
2018-03-22T19:06:56.354Z,71.70
2018-03-22T19:09:22.661Z,73.30
2018-03-22T19:11:49.299Z,74.80
2018-03-22T19:14:15.601Z,77.40
2018-03-22T19:16:42.938Z,79.10
2018-03-22T19:19:09.293Z,80.20
2018-03-22T19:21:36.554Z,82.20
2018-03-22T19:24:03.087Z,83.20
2018-03-22T19:26:29.889Z,84.30
2018-03-22T19:28:56.970Z,87.00
2018-03-22T19:31:23.264Z,86.90
2018-03-22T19:33:49.591Z,88.00
2018-03-22T19:36:15.886Z,89.00
2018-03-22T19:38:42.918Z,90.60
2018-03-22T19:41:09.274Z,90.60
2018-03-22T19:43:35.553Z,91.30
2018-03-22T19:46:01.841Z,91.80
2018-03-22T19:48:29.027Z,92.30
2018-03-22T19:50:56.306Z,93.00
2018-03-22T19:53:22.597Z,92.90
2018-03-22T19:55:48.881Z,93.50
2018-03-22T19:58:15.960Z,94.10
2018-03-22T20:00:42.248Z,94.10
2018-03-22T20:03:08.575Z,94.40
2018-03-22T20:05:35.022Z,94.70
2018-03-22T20:08:01.763Z,95.00
2018-03-22T20:10:28.075Z,95.30
2018-03-22T20:12:54.407Z,95.50
2018-03-22T20:15:21.483Z,96.10
2018-03-22T20:17:47.899Z,96.00
2018-03-22T20:20:15.213Z,96.30
2018-03-22T20:22:41.500Z,96.50
2018-03-22T20:25:07.828Z,96.70
2018-03-22T20:27:34.143Z,96.90
2018-03-22T20:30:00.474Z,97.10
2018-03-22T20:32:26.790Z,97.10
2018-03-22T20:34:53.858Z,97.00
2018-03-22T20:37:20.916Z,96.90
2018-03-22T20:39:48.022Z,96.80
2018-03-22T20:42:14.362Z,96.80
2018-03-22T20:44:40.654Z,97.00
2018-03-22T20:47:08.135Z,97.20
2018-03-22T20:49:34.535Z,97.20
2018-03-22T20:52:00.926Z,97.40
2018-03-22T20:54:27.240Z,97.50
2018-03-22T20:56:54.066Z,97.60
2018-03-22T20:59:20.402Z,97.70
2018-03-22T21:01:46.666Z,97.70
2018-03-22T21:04:13.938Z,97.80
2018-03-22T21:06:40.246Z,97.80
2018-03-22T21:09:06.535Z,98.00
2018-03-22T21:11:33.623Z,98.10
2018-03-22T21:13:59.947Z,98.10
2018-03-22T21:16:27.064Z,98.20
2018-03-22T21:18:53.341Z,98.20
2018-03-22T21:21:20.390Z,98.30
2018-03-22T21:23:46.632Z,98.60
2018-03-22T21:26:12.884Z,98.30
2018-03-22T21:28:39.851Z,98.50
2018-03-22T21:31:06.828Z,98.60
2018-03-22T21:33:33.353Z,98.60
2018-03-22T21:36:00.348Z,98.60
2018-03-22T21:38:26.585Z,98.60
2018-03-22T21:40:52.913Z,98.60
2018-03-22T21:43:19.227Z,98.70
2018-03-22T21:45:46.521Z,99.00
2018-03-22T21:48:12.906Z,99.00
2018-03-22T21:50:48.272Z,99.10
2018-03-22T21:53:14.525Z,99.10
2018-03-22T21:55:41.146Z,99.10
2018-03-22T21:58:07.394Z,99.10
2018-03-22T22:00:33.637Z,99.20
2018-03-22T22:02:59.871Z,99.10
2018-03-22T22:05:26.117Z,99.30
2018-03-22T22:07:52.377Z,99.40
2018-03-22T22:10:18.598Z,99.40
2018-03-22T22:12:44.848Z,99.40
2018-03-22T22:15:11.085Z,99.30
2018-03-22T22:17:37.299Z,99.30
2018-03-22T22:20:03.554Z,99.30
2018-03-22T22:22:30.631Z,99.50
2018-03-22T22:24:56.843Z,99.50
2018-03-22T22:27:23.118Z,99.50
2018-03-22T22:29:49.342Z,99.50
2018-03-22T22:32:15.915Z,99.50
2018-03-22T22:34:42.130Z,99.60
2018-03-22T22:37:08.359Z,99.70
2018-03-22T22:39:34.583Z,99.70
2018-03-22T22:42:00.778Z,99.70
2018-03-22T22:44:27.003Z,99.80
2018-03-22T22:46:53.981Z,99.90
2018-03-22T22:49:20.212Z,99.90
2018-03-22T22:51:47.630Z,99.90
2018-03-22T22:54:15.116Z,99.80
2018-03-22T22:56:41.647Z,99.70
2018-03-22T22:59:08.936Z,99.90
2018-03-22T23:01:35.163Z,99.90
2018-03-22T23:04:01.407Z,99.90
2018-03-22T23:06:28.894Z,99.90
2018-03-22T23:08:55.524Z,99.80
2018-03-22T23:11:21.804Z,99.80
2018-03-22T23:13:48.950Z,99.80
2018-03-22T23:16:15.338Z,99.90
2018-03-22T23:18:42.325Z,99.90
2018-03-22T23:21:08.551Z,99.90
2018-03-22T23:23:34.864Z,99.90
2018-03-22T23:26:01.862Z,99.90
2018-03-22T23:28:28.414Z,99.90
2018-03-22T23:30:54.658Z,99.90
2018-03-22T23:33:20.880Z,99.90
2018-03-22T23:35:47.144Z,99.90
2018-03-22T23:38:13.376Z,99.90
2018-03-22T23:40:39.600Z,99.80
2018-03-22T23:43:05.821Z,99.90
2018-03-22T23:45:32.784Z,99.80
2018-03-22T23:47:59.743Z,99.80
2018-03-22T23:50:25.965Z,99.80
2018-03-22T23:52:52.941Z,99.70
2018-03-22T23:55:19.158Z,99.70
2018-03-22T23:57:45.376Z,99.70
